Time;durP1;ratioP1;P1;durP2;ratioP2;P2;SDS_P1;SDS_P2;PMS_P1;PMS_P2;Temp;Humidity;BMP_temperature;BMP_pressure;BME280_temperature;BME280_humidity;BME280_pressure;Samples;Min_cycle;Max_cycle;Signal;HPM_P1;HPM_P2
2022/07/29 00:01:55;;;;;;;2.63;1.05;;;16.60;68.20;;;;;;4939841;28;20043;-71
2022/07/29 00:04:21;;;;;;;2.45;1.45;;;16.50;68.20;;;;;;4938166;29;20035;-71
2022/07/29 00:06:47;;;;;;;3.33;1.50;;;16.50;68.40;;;;;;4938497;28;20023;-71
2022/07/29 00:09:13;;;;;;;3.88;1.50;;;16.50;68.50;;;;;;4935378;29;20520;-71
2022/07/29 00:11:38;;;;;;;3.03;1.25;;;16.50;68.50;;;;;;4943739;28;20066;-71
2022/07/29 00:14:04;;;;;;;6.93;1.80;;;16.50;68.70;;;;;;4944790;29;20039;-71
2022/07/29 00:16:30;;;;;;;2.83;1.30;;;16.40;68.80;;;;;;4944370;29;20169;-71
2022/07/29 00:18:56;;;;;;;4.10;1.27;;;16.40;68.90;;;;;;4942791;29;20050;-69
2022/07/29 00:21:21;;;;;;;2.38;1.23;;;16.40;69.00;;;;;;4939040;28;20042;-71
2022/07/29 00:23:47;;;;;;;2.78;1.40;;;16.30;69.10;;;;;;4938480;28;20484;-70
2022/07/29 00:26:13;;;;;;;1.63;1.13;;;16.30;69.30;;;;;;4935906;29;20031;-70
2022/07/29 00:28:39;;;;;;;2.25;1.20;;;16.30;69.70;;;;;;4936925;28;20027;-71
2022/07/29 00:31:05;;;;;;;2.15;1.38;;;16.20;69.80;;;;;;4939169;28;20046;-71
2022/07/29 00:33:30;;;;;;;2.50;1.30;;;16.10;70.00;;;;;;4938833;29;20506;-71
2022/07/29 00:35:56;;;;;;;5.05;1.50;;;16.10;70.20;;;;;;4941582;28;20054;-70
2022/07/29 00:38:22;;;;;;;2.55;1.48;;;16.10;70.50;;;;;;4939141;29;20036;-70
2022/07/29 00:40:48;;;;;;;2.95;1.60;;;16.00;70.80;;;;;;4941375;28;20114;-70
2022/07/29 00:43:14;;;;;;;3.55;1.30;;;16.00;71.00;;;;;;4935945;29;20037;-70
2022/07/29 00:45:41;;;;;;;3.70;1.42;;;16.00;71.20;;;;;;4937774;28;20193;-70
2022/07/29 00:48:08;;;;;;;3.00;1.67;;;16.00;71.40;;;;;;4933584;29;20480;-69
2022/07/29 00:50:35;;;;;;;3.72;1.35;;;16.00;71.40;;;;;;4939651;28;20122;-70
2022/07/29 00:53:03;;;;;;;3.28;1.52;;;16.00;71.70;;;;;;4941634;28;20046;-70
2022/07/29 00:55:30;;;;;;;3.10;1.30;;;16.00;71.90;;;;;;4942402;29;20484;-69
2022/07/29 00:57:57;;;;;;;1.80;1.30;;;15.90;71.90;;;;;;4939762;28;20801;-70
2022/07/29 01:00:26;;;;;;;2.33;1.30;;;15.90;72.10;;;;;;4938503;28;20040;-70
2022/07/29 01:02:52;;;;;;;2.28;1.42;;;15.90;72.20;;;;;;4936307;28;20031;-70
2022/07/29 01:05:23;;;;;;;4.70;1.50;;;15.90;72.30;;;;;;4935934;29;20818;-69
2022/07/29 01:07:52;;;;;;;2.92;1.52;;;15.90;72.50;;;;;;4934408;29;20106;-70
2022/07/29 01:10:20;;;;;;;1.77;1.40;;;15.90;72.70;;;;;;4941266;28;20031;-70
2022/07/29 01:12:48;;;;;;;3.92;1.65;;;15.90;72.80;;;;;;4941550;28;20487;-70
2022/07/29 01:15:15;;;;;;;5.18;1.48;;;15.90;73.60;;;;;;4939723;28;20035;-70
2022/07/29 01:18:14;;;;;;;3.05;1.60;;;15.90;72.90;;;;;;4940295;28;20046;-70
2022/07/29 01:21:27;;;;;;;3.42;1.63;;;15.90;72.90;;;;;;4950117;28;20673;-70
2022/07/29 01:24:19;;;;;;;3.97;1.67;;;15.90;73.00;;;;;;4937041;29;20396;-70
2022/07/29 01:27:22;;;;;;;5.32;2.67;;;15.80;73.20;;;;;;4937932;29;20077;-70
2022/07/29 01:29:56;;;;;;;5.47;1.90;;;15.80;73.50;;;;;;4937743;29;20488;-70
2022/07/29 01:32:26;;;;;;;3.83;1.65;;;15.80;74.20;;;;;;4944058;28;20432;-70
2022/07/29 01:35:04;;;;;;;3.42;2.00;;;15.80;74.00;;;;;;4938960;29;20027;-70
2022/07/29 01:37:36;;;;;;;3.47;1.80;;;15.80;73.90;;;;;;4939384;29;20023;-70
2022/07/29 01:40:04;;;;;;;4.97;1.83;;;15.70;74.20;;;;;;4936060;28;20035;-70
2022/07/29 01:42:38;;;;;;;3.58;2.10;;;15.70;74.30;;;;;;4936916;28;20035;-69
2022/07/29 01:45:33;;;;;;;4.63;2.20;;;15.70;74.60;;;;;;4932950;29;20071;-70
2022/07/29 01:48:03;;;;;;;5.90;2.20;;;15.70;75.10;;;;;;4943588;29;20031;-70
2022/07/29 01:50:34;;;;;;;3.25;2.00;;;15.70;75.20;;;;;;4941566;28;20039;-70
2022/07/29 01:53:04;;;;;;;8.45;2.75;;;15.80;75.10;;;;;;4939691;28;20808;-70
2022/07/29 01:55:35;;;;;;;5.00;2.25;;;15.80;75.00;;;;;;4939646;29;20070;-70
2022/07/29 01:58:04;;;;;;;4.47;2.15;;;15.80;75.20;;;;;;4936593;28;20062;-70
2022/07/29 02:00:32;;;;;;;3.38;2.40;;;15.80;75.20;;;;;;4938265;28;20094;-70
2022/07/29 02:03:02;;;;;;;8.13;2.47;;;15.80;75.30;;;;;;4937177;28;20032;-70
2022/07/29 02:05:30;;;;;;;5.22;2.10;;;15.80;75.70;;;;;;4939313;29;20031;-70
2022/07/29 02:07:57;;;;;;;7.00;2.67;;;15.90;75.70;;;;;;4942771;28;20035;-70
2022/07/29 02:10:29;;;;;;;4.47;2.40;;;15.90;75.40;;;;;;4941539;28;20046;-70
2022/07/29 02:12:57;;;;;;;3.72;2.22;;;15.80;75.50;;;;;;4941364;29;20090;-70
2022/07/29 02:15:26;;;;;;;2.55;1.88;;;15.80;75.60;;;;;;4941954;29;20203;-69
2022/07/29 02:18:01;;;;;;;3.35;2.22;;;15.80;75.80;;;;;;4940646;29;20466;-69
2022/07/29 02:20:29;;;;;;;5.25;2.53;;;15.80;75.80;;;;;;4940226;28;20062;-69
2022/07/29 02:22:58;;;;;;;7.68;3.00;;;15.90;75.90;;;;;;4936646;28;20039;-69
2022/07/29 02:25:24;;;;;;;5.07;2.45;;;15.90;75.80;;;;;;4945000;28;20071;-69
2022/07/29 02:27:51;;;;;;;3.15;2.22;;;15.80;75.70;;;;;;4946729;28;20035;-70
2022/07/29 02:30:18;;;;;;;5.57;2.50;;;15.80;75.80;;;;;;4948771;28;20027;-70
2022/07/29 02:32:46;;;;;;;4.57;2.72;;;15.90;75.90;;;;;;4945067;28;20093;-70
2022/07/29 02:35:13;;;;;;;8.85;2.72;;;15.90;76.00;;;;;;4940828;28;20124;-70
2022/07/29 02:37:44;;;;;;;3.83;2.50;;;15.90;76.70;;;;;;4943683;29;20058;-70
2022/07/29 02:40:12;;;;;;;5.38;2.83;;;15.90;76.10;;;;;;4936733;29;20031;-70
2022/07/29 02:42:43;;;;;;;3.58;2.50;;;15.90;76.30;;;;;;4937276;29;20035;-70
2022/07/29 02:45:10;;;;;;;6.97;2.60;;;15.90;76.30;;;;;;4944917;28;20042;-70
2022/07/29 02:47:46;;;;;;;4.57;2.40;;;15.90;76.20;;;;;;4944955;28;20037;-70
2022/07/29 02:50:15;;;;;;;7.32;2.40;;;15.90;76.50;;;;;;4941742;28;20838;-70
2022/07/29 02:53:00;;;;;;;5.45;2.92;;;15.90;76.60;;;;;;4942168;28;20072;-69
2022/07/29 02:55:36;;;;;;;6.63;2.55;;;15.90;76.70;;;;;;4940801;29;20035;-70
2022/07/29 02:58:17;;;;;;;3.95;2.53;;;16.00;76.60;;;;;;4937430;28;20432;-70
2022/07/29 03:00:46;;;;;;;6.05;2.60;;;15.90;76.70;;;;;;4935483;28;20035;-70
2022/07/29 03:03:14;;;;;;;4.93;3.25;;;16.00;76.70;;;;;;4942735;29;20043;-70
2022/07/29 03:05:40;;;;;;;3.45;2.35;;;16.00;76.80;;;;;;4944970;28;20090;-69
2022/07/29 03:08:10;;;;;;;5.07;2.50;;;16.00;76.80;;;;;;4941322;28;20038;-70
2022/07/29 03:10:39;;;;;;;4.75;2.70;;;16.00;76.80;;;;;;4942216;28;20039;-70
2022/07/29 03:13:06;;;;;;;4.10;2.50;;;16.00;76.50;;;;;;4937764;28;20027;-70
2022/07/29 03:15:32;;;;;;;4.47;2.50;;;16.10;76.50;;;;;;4940069;29;20042;-70
2022/07/29 03:17:59;;;;;;;4.57;2.75;;;16.00;76.60;;;;;;4936039;29;20035;-70
2022/07/29 03:20:25;;;;;;;8.73;2.92;;;16.00;76.60;;;;;;4936658;28;20050;-69
2022/07/29 03:22:51;;;;;;;5.82;2.58;;;15.90;77.10;;;;;;4943813;28;20480;-70
2022/07/29 03:25:19;;;;;;;5.03;2.83;;;15.90;77.20;;;;;;4942430;28;20090;-69
2022/07/29 03:27:46;;;;;;;7.55;2.92;;;15.90;77.80;;;;;;4942687;28;20030;-70
2022/07/29 03:30:13;;;;;;;5.07;2.38;;;15.90;77.50;;;;;;4942256;28;20023;-70
2022/07/29 03:32:40;;;;;;;8.18;2.92;;;15.90;77.50;;;;;;4943017;28;20563;-69
2022/07/29 03:35:07;;;;;;;4.57;2.58;;;15.90;77.80;;;;;;4936044;29;20532;-70
2022/07/29 03:37:33;;;;;;;4.53;2.50;;;15.90;77.90;;;;;;4938240;29;20045;-70
2022/07/29 03:40:01;;;;;;;5.80;2.63;;;15.80;77.80;;;;;;4941036;29;20158;-70
2022/07/29 03:42:33;;;;;;;5.30;2.53;;;15.80;78.30;;;;;;4942758;28;20792;-70
2022/07/29 03:45:03;;;;;;;2.95;2.38;;;15.80;78.20;;;;;;4939816;29;20573;-70
2022/07/29 03:47:31;;;;;;;4.07;2.58;;;15.80;78.40;;;;;;4943458;29;20043;-70
2022/07/29 03:50:04;;;;;;;3.58;2.47;;;15.80;78.40;;;;;;4939239;29;20659;-70
2022/07/29 03:52:30;;;;;;;6.35;2.88;;;15.80;78.40;;;;;;4939115;29;20027;-70
2022/07/29 03:54:56;;;;;;;4.05;2.70;;;15.80;78.60;;;;;;4935743;28;20684;-70
2022/07/29 03:57:25;;;;;;;4.05;2.72;;;15.80;78.80;;;;;;4935765;29;20028;-70
2022/07/29 03:59:54;;;;;;;5.65;2.53;;;15.80;78.70;;;;;;4943881;28;20027;-70
2022/07/29 04:02:20;;;;;;;4.50;2.72;;;15.80;78.70;;;;;;4941961;28;20031;-69
2022/07/29 04:04:46;;;;;;;4.72;2.45;;;15.80;78.80;;;;;;4942444;28;20032;-70
2022/07/29 04:07:15;;;;;;;4.38;2.65;;;15.80;78.80;;;;;;4938071;28;20042;-70
2022/07/29 04:09:41;;;;;;;3.72;2.40;;;15.90;78.90;;;;;;4939478;28;20086;-70
2022/07/29 04:12:07;;;;;;;3.83;2.30;;;15.90;78.90;;;;;;4933319;28;20363;-70
2022/07/29 04:14:34;;;;;;;3.17;2.67;;;15.90;78.90;;;;;;4937755;28;20059;-70
2022/07/29 04:17:01;;;;;;;4.28;2.40;;;16.00;79.00;;;;;;4936354;29;20027;-70
2022/07/29 04:19:27;;;;;;;3.78;2.40;;;16.00;79.00;;;;;;4942677;29;20643;-70
2022/07/29 04:21:53;;;;;;;3.47;2.00;;;16.00;79.00;;;;;;4942394;28;20035;-70
2022/07/29 04:24:18;;;;;;;4.07;2.45;;;16.00;79.10;;;;;;4939777;28;20618;-70
2022/07/29 04:26:45;;;;;;;3.35;2.33;;;16.10;79.10;;;;;;4940933;28;20459;-70
2022/07/29 04:29:11;;;;;;;4.85;2.53;;;16.20;79.20;;;;;;4937226;29;20039;-70
2022/07/29 04:31:37;;;;;;;4.30;2.70;;;16.20;79.10;;;;;;4936906;28;20031;-70
2022/07/29 04:34:03;;;;;;;6.65;2.50;;;16.30;79.10;;;;;;4936040;28;20572;-69
2022/07/29 04:36:29;;;;;;;5.78;2.42;;;16.30;79.10;;;;;;4939971;29;20082;-69
2022/07/29 04:38:55;;;;;;;5.38;2.83;;;16.40;79.10;;;;;;4943619;28;20054;-70
2022/07/29 04:41:20;;;;;;;5.30;2.30;;;16.50;79.00;;;;;;4941019;28;20042;-70
2022/07/29 04:43:46;;;;;;;7.03;2.45;;;16.60;78.70;;;;;;4942607;28;20031;-70
2022/07/29 04:46:12;;;;;;;3.85;2.38;;;16.70;78.30;;;;;;4939520;28;20169;-69
2022/07/29 04:48:38;;;;;;;5.72;2.75;;;16.80;78.10;;;;;;4941125;28;20031;-69
2022/07/29 04:51:03;;;;;;;4.28;2.67;;;16.80;78.00;;;;;;4934748;28;20047;-70
2022/07/29 04:53:29;;;;;;;7.05;2.92;;;16.90;77.40;;;;;;4935980;29;20677;-70
2022/07/29 04:55:55;;;;;;;4.18;2.28;;;17.00;76.90;;;;;;4938895;28;20042;-70
2022/07/29 04:58:22;;;;;;;4.10;2.65;;;17.00;76.80;;;;;;4941100;29;20830;-70
2022/07/29 05:00:49;;;;;;;3.92;2.25;;;17.10;77.20;;;;;;4940789;28;20027;-69
2022/07/29 05:03:14;;;;;;;4.90;2.40;;;17.20;77.20;;;;;;4941732;29;20487;-70
2022/07/29 05:05:40;;;;;;;6.30;2.72;;;17.30;76.50;;;;;;4938423;28;20086;-70
2022/07/29 05:08:06;;;;;;;6.55;2.78;;;17.30;76.40;;;;;;4938936;29;20031;-70
2022/07/29 05:10:33;;;;;;;6.93;2.53;;;17.40;75.20;;;;;;4936627;28;20039;-70
2022/07/29 05:12:59;;;;;;;5.63;2.40;;;17.50;75.10;;;;;;4932849;29;20481;-70
2022/07/29 05:15:25;;;;;;;4.97;2.20;;;17.60;74.80;;;;;;4942132;29;20094;-69
2022/07/29 05:17:50;;;;;;;8.50;2.20;;;17.60;75.20;;;;;;4942394;29;20035;-70
2022/07/29 05:20:18;;;;;;;3.80;2.05;;;17.60;74.90;;;;;;4939932;28;20582;-70
2022/07/29 05:22:43;;;;;;;4.18;2.72;;;17.70;74.60;;;;;;4940202;28;20623;-70
2022/07/29 05:25:09;;;;;;;4.10;2.92;;;17.70;74.60;;;;;;4937051;28;20032;-70
2022/07/29 05:27:36;;;;;;;4.20;2.13;;;17.70;74.90;;;;;;4938307;29;20035;-69
2022/07/29 05:30:02;;;;;;;4.63;2.38;;;17.80;75.40;;;;;;4940239;29;20038;-70
2022/07/29 05:32:28;;;;;;;7.60;2.78;;;17.90;75.70;;;;;;4936102;28;20034;-70
2022/07/29 05:34:54;;;;;;;3.88;2.13;;;18.00;75.40;;;;;;4942986;28;20032;-70
2022/07/29 05:37:20;;;;;;;9.25;2.25;;;18.00;75.30;;;;;;4941157;28;20051;-70
2022/07/29 05:39:46;;;;;;;4.32;2.63;;;18.20;75.30;;;;;;4940877;28;20039;-70
2022/07/29 05:42:12;;;;;;;4.28;2.35;;;18.20;75.30;;;;;;4936414;28;20042;-70
2022/07/29 05:44:39;;;;;;;7.38;2.28;;;18.30;73.90;;;;;;4940702;28;20400;-70
2022/07/29 05:47:06;;;;;;;3.47;2.05;;;18.40;73.90;;;;;;4939073;29;20032;-70
2022/07/29 05:49:32;;;;;;;2.80;2.05;;;18.50;73.30;;;;;;4940870;29;20427;-70
2022/07/29 05:51:58;;;;;;;3.88;2.10;;;18.50;71.90;;;;;;4943547;28;20039;-69
2022/07/29 05:54:24;;;;;;;5.00;2.38;;;18.50;72.00;;;;;;4945912;29;20118;-70
2022/07/29 05:56:50;;;;;;;8.18;2.08;;;18.50;70.80;;;;;;4945439;28;20057;-70
2022/07/29 05:59:15;;;;;;;6.50;1.98;;;18.50;71.10;;;;;;4943170;28;20040;-70
2022/07/29 06:01:41;;;;;;;3.42;2.20;;;18.60;70.60;;;;;;4942664;28;20675;-70
2022/07/29 06:04:07;;;;;;;4.60;2.72;;;18.70;70.60;;;;;;4939649;29;20034;-70
2022/07/29 06:06:34;;;;;;;6.75;2.53;;;18.80;69.30;;;;;;4940863;29;20814;-70
2022/07/29 06:09:00;;;;;;;7.43;2.05;;;18.90;69.30;;;;;;4937154;29;20138;-70
2022/07/29 06:11:26;;;;;;;5.78;2.10;;;19.00;67.70;;;;;;4945868;28;20039;-70
2022/07/29 06:13:53;;;;;;;5.22;2.15;;;19.10;68.20;;;;;;4944435;29;20031;-70
2022/07/29 06:16:19;;;;;;;4.43;2.00;;;19.20;66.40;;;;;;4944234;29;20507;-70
2022/07/29 06:18:44;;;;;;;2.65;1.52;;;19.30;66.90;;;;;;4943570;28;20039;-70
2022/07/29 06:21:10;;;;;;;5.43;2.33;;;19.40;67.00;;;;;;4939995;28;20036;-69
2022/07/29 06:23:37;;;;;;;2.88;1.80;;;19.50;65.70;;;;;;4940917;28;20042;-70
2022/07/29 06:26:03;;;;;;;5.43;2.08;;;19.60;66.50;;;;;;4937154;28;20035;-70
2022/07/29 06:28:29;;;;;;;5.28;1.95;;;19.70;64.10;;;;;;4937343;29;20065;-70
2022/07/29 06:30:55;;;;;;;3.85;1.58;;;19.80;63.90;;;;;;4949856;28;20094;-69
2022/07/29 06:33:21;;;;;;;2.55;2.00;;;19.90;63.60;;;;;;4943024;28;20110;-69
2022/07/29 06:35:47;;;;;;;5.55;1.88;;;20.00;62.10;;;;;;4943997;28;20113;-70
2022/07/29 06:38:13;;;;;;;7.15;1.77;;;20.10;62.20;;;;;;4940676;29;20040;-70
2022/07/29 06:41:02;;;;;;;3.67;1.70;;;20.30;62.10;;;;;;4941657;28;20122;-70
2022/07/29 06:43:37;;;;;;;2.65;1.67;;;20.40;62.20;;;;;;4939628;29;20054;-70
2022/07/29 06:46:08;;;;;;;9.57;2.08;;;20.50;61.30;;;;;;4936396;29;20116;-70
2022/07/29 06:48:35;;;;;;;3.92;1.40;;;20.70;61.10;;;;;;4941890;29;20027;-69
2022/07/29 06:51:02;;;;;;;7.25;2.00;;;20.80;59.20;;;;;;4944468;28;20421;-70
2022/07/29 06:53:29;;;;;;;2.80;1.60;;;20.90;60.90;;;;;;4942974;29;20035;-69
2022/07/29 06:55:55;;;;;;;2.42;1.65;;;21.00;60.00;;;;;;4941254;28;20058;-70
2022/07/29 06:58:21;;;;;;;6.07;2.40;;;21.10;59.40;;;;;;4942048;29;20035;-70
2022/07/29 07:00:55;;;;;;;5.32;2.10;;;21.10;57.70;;;;;;4941054;28;20027;-70
2022/07/29 07:03:22;;;;;;;3.63;1.75;;;21.10;58.70;;;;;;4939677;29;20036;-70
2022/07/29 07:05:48;;;;;;;6.68;1.73;;;21.20;58.20;;;;;;4937302;29;20031;-70
2022/07/29 07:08:15;;;;;;;3.00;1.73;;;21.20;57.50;;;;;;4942638;29;20030;-70
2022/07/29 07:10:42;;;;;;;8.88;1.80;;;21.10;57.70;;;;;;4943582;28;20034;-70
2022/07/29 07:13:08;;;;;;;4.65;1.60;;;21.10;57.80;;;;;;4940834;29;20058;-70
2022/07/29 07:15:35;;;;;;;2.90;1.55;;;21.10;57.90;;;;;;4944007;28;20043;-70
2022/07/29 07:18:01;;;;;;;4.05;1.60;;;21.00;58.70;;;;;;4938687;29;20051;-70
2022/07/29 07:20:26;;;;;;;4.95;1.70;;;21.00;58.90;;;;;;4938948;28;20034;-70
2022/07/29 07:22:52;;;;;;;4.85;1.88;;;21.00;58.60;;;;;;4936141;28;20027;-70
2022/07/29 07:25:18;;;;;;;5.70;1.80;;;21.00;59.00;;;;;;4936026;29;20032;-70
2022/07/29 07:27:44;;;;;;;4.22;1.60;;;21.00;58.80;;;;;;4943949;28;20078;-70
2022/07/29 07:30:10;;;;;;;3.20;1.55;;;21.10;58.10;;;;;;4944617;28;20046;-70
2022/07/29 07:32:36;;;;;;;4.40;1.75;;;21.10;58.30;;;;;;4943530;28;20038;-70
2022/07/29 07:35:05;;;;;;;8.90;1.90;;;21.30;58.70;;;;;;4941434;29;20773;-70
2022/07/29 07:37:31;;;;;;;3.03;1.60;;;21.50;58.40;;;;;;4938291;29;20082;-70
2022/07/29 07:39:57;;;;;;;5.43;1.85;;;21.60;57.90;;;;;;4937252;28;20118;-70
2022/07/29 07:42:23;;;;;;;5.18;1.60;;;21.70;57.80;;;;;;4936305;28;20500;-70
2022/07/29 07:44:49;;;;;;;8.02;2.08;;;21.80;57.20;;;;;;4937396;29;20023;-70
2022/07/29 07:47:19;;;;;;;5.45;2.10;;;21.80;56.40;;;;;;4943010;28;20038;-70
2022/07/29 07:49:47;;;;;;;6.25;1.80;;;21.90;56.50;;;;;;4942907;28;20133;-70
2022/07/29 07:52:13;;;;;;;5.25;1.80;;;22.00;56.60;;;;;;4939244;28;20032;-70
2022/07/29 07:54:39;;;;;;;2.97;1.70;;;22.20;56.00;;;;;;4940012;28;20543;-70
2022/07/29 07:57:05;;;;;;;3.30;1.40;;;22.30;56.00;;;;;;4936688;28;20049;-70
2022/07/29 07:59:31;;;;;;;5.25;1.40;;;22.40;54.80;;;;;;4936473;29;20082;-70
2022/07/29 08:01:56;;;;;;;5.75;1.65;;;22.50;55.00;;;;;;4933997;28;20035;-70
2022/07/29 08:04:23;;;;;;;3.80;1.55;;;22.60;55.10;;;;;;4942627;29;20106;-70
2022/07/29 08:06:50;;;;;;;4.05;1.67;;;22.70;53.80;;;;;;4942528;28;20027;-70
2022/07/29 08:09:16;;;;;;;4.53;1.52;;;22.80;54.00;;;;;;4940728;28;20038;-70
2022/07/29 08:11:41;;;;;;;4.65;1.67;;;22.90;54.00;;;;;;4940388;28;20027;-70
2022/07/29 08:14:07;;;;;;;4.18;1.80;;;23.00;53.70;;;;;;4937363;28;20474;-70
2022/07/29 08:16:33;;;;;;;3.78;1.50;;;23.00;53.30;;;;;;4938812;28;20043;-70
2022/07/29 08:18:59;;;;;;;6.95;2.03;;;23.10;53.30;;;;;;4935049;28;20043;-70
2022/07/29 08:21:25;;;;;;;3.28;1.45;;;23.20;53.60;;;;;;4935010;28;20039;-70
2022/07/29 08:24:42;;;;;;;2.28;1.35;;;23.30;53.40;;;;;;4942062;29;20889;-70
2022/07/29 08:26:41;;;;;;;4.40;1.80;;;23.40;53.00;;;;;;4936711;28;20118;-70
2022/07/29 08:29:07;;;;;;;3.20;1.65;;;23.50;51.60;;;;;;4937731;29;20039;-70
2022/07/29 08:31:33;;;;;;;2.13;1.38;;;23.50;50.70;;;;;;4943032;28;20093;-70
2022/07/29 08:33:59;;;;;;;5.00;1.60;;;23.60;52.00;;;;;;4937267;29;20137;-70
2022/07/29 08:36:26;;;;;;;5.82;1.63;;;23.70;51.30;;;;;;4936813;29;20039;-70
2022/07/29 08:38:52;;;;;;;4.50;1.35;;;23.80;50.90;;;;;;4934720;29;20043;-70
2022/07/29 08:41:21;;;;;;;2.85;1.50;;;23.90;50.90;;;;;;4937634;28;20647;-70
2022/07/29 08:43:48;;;;;;;6.07;1.30;;;24.00;52.50;;;;;;4944098;28;20899;-70
2022/07/29 08:46:14;;;;;;;4.13;1.20;;;24.20;50.60;;;;;;4940008;28;20062;-70
2022/07/29 08:48:41;;;;;;;3.42;1.42;;;24.40;48.50;;;;;;4939460;28;20499;-70
2022/07/29 08:51:08;;;;;;;4.63;1.33;;;24.40;49.50;;;;;;4937032;28;20046;-70
2022/07/29 08:53:34;;;;;;;4.38;1.60;;;24.50;48.60;;;;;;4937751;28;20035;-70
2022/07/29 08:56:01;;;;;;;3.65;1.35;;;24.60;48.70;;;;;;4935239;29;20047;-70
2022/07/29 08:58:32;;;;;;;4.50;1.45;;;24.60;47.30;;;;;;4935779;29;20023;-70
2022/07/29 09:01:02;;;;;;;3.63;1.20;;;24.70;46.90;;;;;;4939399;28;20031;-70
2022/07/29 09:03:31;;;;;;;8.73;1.48;;;24.80;47.30;;;;;;4941522;29;20031;-70
2022/07/29 09:05:59;;;;;;;5.82;1.27;;;24.90;47.30;;;;;;4941068;28;20077;-70
2022/07/29 09:08:25;;;;;;;4.72;1.65;;;25.00;47.00;;;;;;4939168;29;20039;-70
2022/07/29 09:10:51;;;;;;;4.38;1.35;;;25.00;45.80;;;;;;4939246;28;20070;-71
2022/07/29 09:13:17;;;;;;;3.47;1.27;;;25.00;46.30;;;;;;4937714;29;20621;-70
2022/07/29 09:15:44;;;;;;;2.00;1.15;;;25.10;45.50;;;;;;4938019;28;20031;-70
2022/07/29 09:18:10;;;;;;;2.60;1.10;;;25.00;45.90;;;;;;4935237;28;20671;-70
2022/07/29 09:23:22;;;;;;;3.27;1.27;;;25.10;45.50;;;;;;4939791;29;20543;-70
2022/07/29 09:25:48;;;;;;;2.25;1.20;;;25.20;44.20;;;;;;4940040;28;20031;-70
2022/07/29 09:28:16;;;;;;;1.90;1.10;;;25.20;45.50;;;;;;4936273;29;20061;-70
2022/07/29 09:30:56;;;;;;;3.63;1.13;;;25.30;45.20;;;;;;4941165;28;20030;-70
2022/07/29 09:33:23;;;;;;;1.88;1.10;;;25.40;44.60;;;;;;4934707;29;20832;-70
2022/07/29 09:36:05;;;;;;;6.28;1.52;;;25.60;44.20;;;;;;4933758;28;20130;-70
2022/07/29 09:38:31;;;;;;;3.08;1.20;;;25.60;43.50;;;;;;4933993;29;20050;-70
2022/07/29 09:40:59;;;;;;;3.03;1.30;;;25.70;44.30;;;;;;4937885;28;20153;-70
2022/07/29 09:43:25;;;;;;;3.10;1.10;;;25.80;43.90;;;;;;4941055;29;20507;-70
2022/07/29 09:45:51;;;;;;;7.25;1.63;;;26.00;44.10;;;;;;4940373;29;20062;-67
2022/07/29 09:48:19;;;;;;;3.05;1.20;;;26.10;44.20;;;;;;4937327;29;20044;-70
2022/07/29 09:50:48;;;;;;;2.38;1.33;;;26.10;43.20;;;;;;4938129;28;20022;-70
2022/07/29 09:53:32;;;;;;;4.75;0.95;;;26.20;44.10;;;;;;4934815;29;20043;-70
2022/07/29 09:55:58;;;;;;;3.15;0.90;;;26.20;42.60;;;;;;4933879;29;20098;-70
2022/07/29 09:58:24;;;;;;;4.10;1.45;;;26.20;42.50;;;;;;4942634;29;20058;-70
2022/07/29 10:00:52;;;;;;;3.08;1.33;;;26.10;41.80;;;;;;4942398;28;20086;-70
2022/07/29 10:03:18;;;;;;;3.47;1.10;;;26.10;41.60;;;;;;4939231;29;20028;-70
2022/07/29 10:05:45;;;;;;;1.80;1.30;;;26.10;42.30;;;;;;4940025;28;20444;-70
2022/07/29 10:08:12;;;;;;;3.80;1.23;;;26.20;43.30;;;;;;4936811;28;20038;-70
2022/07/29 10:10:42;;;;;;;2.72;1.10;;;26.20;42.30;;;;;;4937385;28;20039;-70
2022/07/29 10:13:14;;;;;;;2.65;1.05;;;26.30;43.20;;;;;;4933572;29;20040;-70
2022/07/29 10:15:43;;;;;;;3.88;1.30;;;26.50;42.90;;;;;;4936011;29;20093;-70
2022/07/29 10:18:11;;;;;;;2.92;0.95;;;26.60;43.90;;;;;;4941477;29;20036;-70
2022/07/29 10:20:37;;;;;;;1.73;1.10;;;26.70;42.70;;;;;;4940941;28;20031;-70
2022/07/29 10:23:04;;;;;;;2.13;1.23;;;26.80;41.60;;;;;;4938433;28;20043;-70
2022/07/29 10:25:31;;;;;;;3.47;1.27;;;26.90;40.30;;;;;;4938796;29;20031;-70
2022/07/29 10:27:57;;;;;;;3.78;1.23;;;26.90;41.50;;;;;;4937229;28;20083;-70
2022/07/29 10:30:25;;;;;;;3.10;1.30;;;27.20;41.40;;;;;;4938820;28;20114;-70
2022/07/29 10:33:14;;;;;;;3.92;0.90;;;27.30;40.60;;;;;;4935364;29;20065;-70
2022/07/29 10:36:04;;;;;;;8.55;1.38;;;27.50;39.10;;;;;;4943903;29;20090;-70
2022/07/29 10:38:58;;;;;;;3.25;1.27;;;27.60;40.10;;;;;;4944693;29;20041;-70
2022/07/29 10:41:51;;;;;;;2.00;1.17;;;27.60;38.60;;;;;;4957096;28;20047;-70
2022/07/29 10:44:27;;;;;;;5.47;1.02;;;27.60;39.10;;;;;;4941111;29;20035;-70
2022/07/29 10:46:53;;;;;;;4.85;1.13;;;27.70;38.70;;;;;;4939984;28;20070;-70
2022/07/29 10:49:21;;;;;;;3.50;1.30;;;27.80;39.50;;;;;;4938599;29;20035;-70
2022/07/29 10:52:24;;;;;;;3.47;1.10;;;27.70;37.60;;;;;;4937144;28;20135;-70
2022/07/29 10:54:51;;;;;;;5.07;1.67;;;27.50;37.70;;;;;;4885451;29;20040;-70
2022/07/29 10:57:31;;;;;;;3.03;1.20;;;27.40;38.10;;;;;;4932149;29;20052;-70
2022/07/29 11:00:18;;;;;;;3.45;1.20;;;27.30;37.00;;;;;;4940213;29;20031;-70
2022/07/29 11:02:50;;;;;;;3.08;1.25;;;27.20;37.60;;;;;;4932225;29;20054;-71
2022/07/29 11:05:19;;;;;;;2.35;1.20;;;27.30;39.20;;;;;;4938630;29;20493;-70
2022/07/29 11:08:12;;;;;;;5.28;1.30;;;27.40;38.60;;;;;;4939678;28;20086;-70
2022/07/29 11:10:39;;;;;;;2.55;1.30;;;27.50;38.60;;;;;;4936501;28;20031;-70
2022/07/29 11:13:05;;;;;;;3.92;1.40;;;27.60;38.70;;;;;;4941779;29;20059;-70
2022/07/29 11:15:54;;;;;;;4.45;1.45;;;27.60;38.80;;;;;;4944016;29;20053;-70
2022/07/29 11:18:20;;;;;;;4.80;1.73;;;27.70;39.00;;;;;;4940984;29;20677;-70
2022/07/29 11:20:49;;;;;;;3.08;1.40;;;27.70;38.80;;;;;;4940736;28;20039;-70
2022/07/29 11:23:31;;;;;;;7.10;1.20;;;27.70;37.60;;;;;;4938644;29;20035;-70
2022/07/29 11:26:32;;;;;;;3.75;1.40;;;27.80;37.90;;;;;;4939397;29;20050;-70
2022/07/29 11:29:13;;;;;;;2.42;1.40;;;27.80;38.00;;;;;;4939813;29;20035;-70
2022/07/29 11:31:45;;;;;;;2.88;1.40;;;27.90;37.50;;;;;;4946537;28;20046;-70
2022/07/29 11:34:32;;;;;;;4.78;1.52;;;28.00;38.70;;;;;;4945094;28;20035;-70
2022/07/29 11:37:10;;;;;;;3.95;1.77;;;28.10;39.40;;;;;;4940204;29;20459;-70
2022/07/29 11:39:47;;;;;;;6.80;1.50;;;28.20;38.50;;;;;;4938044;29;20031;-70
2022/07/29 11:42:25;;;;;;;4.03;1.70;;;28.30;38.60;;;;;;4936988;28;20045;-70
2022/07/29 11:45:08;;;;;;;5.88;1.42;;;28.40;39.00;;;;;;4938531;29;20034;-70
2022/07/29 11:47:48;;;;;;;7.38;1.98;;;28.50;39.40;;;;;;4940988;29;20031;-70
2022/07/29 11:50:17;;;;;;;3.13;1.33;;;28.50;38.50;;;;;;4938826;29;20445;-70
2022/07/29 11:52:46;;;;;;;6.28;1.60;;;28.50;38.50;;;;;;4943178;29;20043;-70
2022/07/29 11:55:18;;;;;;;4.68;1.73;;;28.40;39.20;;;;;;4941370;28;20506;-71
2022/07/29 11:57:52;;;;;;;2.60;1.45;;;28.30;40.10;;;;;;4941293;29;20447;-70
2022/07/29 12:00:37;;;;;;;6.07;1.73;;;28.50;40.70;;;;;;4938052;28;20389;-70
2022/07/29 12:03:07;;;;;;;3.72;1.80;;;28.60;40.40;;;;;;4936548;28;20123;-70
2022/07/29 12:05:42;;;;;;;4.35;2.08;;;28.60;39.30;;;;;;4936773;28;20034;-70
2022/07/29 12:08:21;;;;;;;5.30;1.52;;;28.60;40.40;;;;;;4933704;29;20130;-70
2022/07/29 12:10:49;;;;;;;4.68;1.83;;;28.60;40.80;;;;;;4941997;28;20159;-70
2022/07/29 12:13:16;;;;;;;7.85;1.90;;;28.70;40.20;;;;;;4941245;28;20086;-70
2022/07/29 12:15:58;;;;;;;1.88;1.70;;;28.70;40.10;;;;;;4941131;28;20042;-70
2022/07/29 12:18:24;;;;;;;5.93;1.70;;;28.60;40.20;;;;;;4939339;29;20039;-70
2022/07/29 12:20:58;;;;;;;2.15;1.58;;;28.80;41.20;;;;;;4936637;28;20035;-70
2022/07/29 12:23:23;;;;;;;6.15;2.00;;;28.90;41.20;;;;;;4936765;29;20040;-70
2022/07/29 12:25:49;;;;;;;4.05;1.85;;;29.00;40.30;;;;;;4935797;29;20145;-70
2022/07/29 12:28:18;;;;;;;4.55;1.90;;;28.90;39.60;;;;;;4938158;29;20035;-70
2022/07/29 12:30:45;;;;;;;2.67;1.83;;;28.80;39.90;;;;;;4945745;28;20030;-70
2022/07/29 12:33:22;;;;;;;4.32;2.00;;;28.70;40.00;;;;;;4940000;29;20038;-70
2022/07/29 12:35:54;;;;;;;2.50;1.65;;;28.70;40.10;;;;;;4940483;28;20050;-70
2022/07/29 12:38:21;;;;;;;4.50;1.50;;;28.60;40.50;;;;;;4937813;29;20035;-70
2022/07/29 12:40:47;;;;;;;2.97;1.38;;;28.70;41.30;;;;;;4941288;28;20039;-70
2022/07/29 12:43:15;;;;;;;2.90;1.80;;;28.80;41.10;;;;;;4934313;29;20485;-71
2022/07/29 12:45:44;;;;;;;5.78;1.88;;;28.80;40.50;;;;;;4936405;28;20127;-70
2022/07/29 12:48:10;;;;;;;4.07;1.77;;;28.90;41.00;;;;;;4942334;28;20114;-70
2022/07/29 12:50:55;;;;;;;2.53;1.75;;;28.90;40.60;;;;;;4941582;28;20490;-70
2022/07/29 12:53:21;;;;;;;1.95;1.40;;;29.00;40.70;;;;;;4938218;28;20061;-70
2022/07/29 12:55:51;;;;;;;4.03;1.90;;;29.00;40.60;;;;;;4937500;29;20495;-70
2022/07/29 12:58:49;;;;;;;2.20;1.55;;;29.10;40.20;;;;;;4936081;29;20043;-71
2022/07/29 13:01:17;;;;;;;4.45;1.80;;;29.10;39.70;;;;;;4914315;28;20060;-70
2022/07/29 13:03:59;;;;;;;6.93;1.85;;;29.10;39.40;;;;;;4935004;29;20034;-70